Pu Dun — V3ZV9 — position and weather

sailwx.info

Track history (hours):
 
Tides and Currents Weather Stations Pressure Air Temp Water Temp Dewpoint Dewpoint Depression Visibility Wind Speed Wind Dir Waves Ship Positions

Pu Dun

Last reported at 2017-Oct-07 08:54 UTC. Time now 2017-Oct-20 17:46 UTC.
Position N 34°29' E 135°03'.
Warning: this ship's position is 13 days out of date.

Length 75 m; draft 4.5 m.

Type: Cargo ship. MMSI: 312615000.

Date/timePositionNaut miles runAvg speedWind from/ knotsBaromVisibWave heightAir tempDewpointWater temp
2017-Oct-07 08:54N 34°29' E 135°03'4 9.3
2017-Oct-07 08:29N 34°33' E 135°04'5 9.6
2017-Oct-07 07:59N 34°37' E 135°01'  
2017-Sep-27 17:04N 34°36' E 134°54'210.2
2017-Sep-27 16:52N 34°37' E 134°56'5 9.5
2017-Sep-27 16:23N 34°37' E 135°01'410.2
2017-Sep-27 16:01N 34°35' E 135°05'5 9.5
2017-Sep-27 15:30N 34°30' E 135°04'5 9.8
2017-Sep-27 15:01N 34°26' E 135°03'5 9.8
2017-Sep-27 14:29N 34°21' E 135°01'7 9.4
2017-Sep-27 13:45N 34°14' E 134°59'2 9.3
2017-Sep-27 13:29N 34°12' E 134°60'  
Track history (hours):
 
Tides and Currents Weather Stations Pressure Air Temp Water Temp Dewpoint Dewpoint Depression Visibility Wind Speed Wind Dir Waves Ship Positions

Pu Dun

Last reported at 2017-Oct-07 08:54 UTC. Time now 2017-Oct-20 17:46 UTC.
Position N 34°29' E 135°03'.
Warning: this ship's position is 13 days out of date.

Length 75 m; draft 4.5 m.

Type: Cargo ship. MMSI: 312615000.

Date/timePositionNaut miles runAvg speedWind from/ knotsBaromVisibWave heightAir tempDewpointWater temp
2017-Oct-07 08:54N 34°29' E 135°03'4 9.3
2017-Oct-07 08:29N 34°33' E 135°04'5 9.6
2017-Oct-07 07:59N 34°37' E 135°01'  
2017-Sep-27 17:04N 34°36' E 134°54'210.2
2017-Sep-27 16:52N 34°37' E 134°56'5 9.5
2017-Sep-27 16:23N 34°37' E 135°01'410.2
2017-Sep-27 16:01N 34°35' E 135°05'5 9.5
2017-Sep-27 15:30N 34°30' E 135°04'5 9.8
2017-Sep-27 15:01N 34°26' E 135°03'5 9.8
2017-Sep-27 14:29N 34°21' E 135°01'7 9.4
2017-Sep-27 13:45N 34°14' E 134°59'2 9.3
2017-Sep-27 13:29N 34°12' E 134°60'  

Dump ship's entire track history